Time;durP1;ratioP1;P1;durP2;ratioP2;P2;SDS_P1;SDS_P2;PMS_P1;PMS_P2;Temp;Humidity;BMP_temperature;BMP_pressure;BME280_temperature;BME280_humidity;BME280_pressure;Samples;Min_cycle;Max_cycle;Signal;HPM_P1;HPM_P2
2021/11/01 00:00:16;;;;;;;22.67;17.42;;;;;;;10.60;100.00;100744.03;5052069;28;20060;-72
2021/11/01 00:02:43;;;;;;;21.48;18.20;;;;;;;10.58;100.00;100735.31;5051710;28;20074;-69
2021/11/01 00:05:10;;;;;;;23.17;17.40;;;;;;;10.65;100.00;100739.91;5033687;28;20036;-68
2021/11/01 00:07:35;;;;;;;25.33;17.75;;;;;;;10.53;100.00;100722.25;5049552;28;20029;-69
2021/11/01 00:10:01;;;;;;;25.50;17.35;;;;;;;10.49;100.00;100716.06;5031187;28;20536;-66
2021/11/01 00:12:30;;;;;;;26.70;18.42;;;;;;;10.47;100.00;100712.53;5045817;28;20064;-66
2021/11/01 00:14:59;;;;;;;25.70;18.85;;;;;;;10.24;100.00;100661.63;5052133;28;20020;-69
2021/11/01 00:17:25;;;;;;;24.02;18.40;;;;;;;10.08;100.00;100645.53;5052336;28;20116;-67
2021/11/01 00:19:52;;;;;;;24.27;18.45;;;;;;;10.56;100.00;100722.34;5052191;28;20100;-69
2021/11/01 00:22:17;;;;;;;24.33;17.15;;;;;;;10.60;100.00;100725.94;5017081;28;20028;-68
2021/11/01 00:24:43;;;;;;;23.15;16.90;;;;;;;10.66;100.00;100731.38;5052071;28;20029;-68
2021/11/01 00:27:08;;;;;;;21.05;17.10;;;;;;;10.63;100.00;100726.06;5034343;28;20437;-68
2021/11/01 00:29:34;;;;;;;23.63;17.90;;;;;;;10.59;100.00;100732.81;5052030;28;20036;-69
2021/11/01 00:32:00;;;;;;;23.63;16.73;;;;;;;10.15;100.00;100632.03;5052169;28;20450;-67
2021/11/01 00:34:26;;;;;;;25.38;17.55;;;;;;;10.73;100.00;100720.47;5034331;28;20502;-69
2021/11/01 00:36:53;;;;;;;23.02;17.05;;;;;;;10.70;100.00;100709.13;5051589;28;20029;-68
2021/11/01 00:39:19;;;;;;;28.52;17.67;;;;;;;10.76;100.00;100709.38;5051511;28;20052;-69
2021/11/01 00:41:45;;;;;;;28.20;16.52;;;;;;;10.71;100.00;100680.78;5052175;28;20490;-69
2021/11/01 00:44:10;;;;;;;25.33;15.88;;;;;;;10.80;100.00;100694.06;5052220;28;20025;-68
2021/11/01 00:46:36;;;;;;;26.05;17.67;;;;;;;10.72;100.00;100684.25;5052384;28;20170;-67
2021/11/01 00:49:03;;;;;;;21.60;15.95;;;;;;;10.69;100.00;100695.31;5000294;28;20415;-69
2021/11/01 00:51:28;;;;;;;22.88;16.05;;;;;;;10.76;100.00;100688.72;5052047;28;20076;-70
2021/11/01 00:53:53;;;;;;;24.10;16.75;;;;;;;10.71;100.00;100674.75;5050970;28;20552;-70
2021/11/01 00:56:19;;;;;;;26.77;16.05;;;;;;;10.78;100.00;100687.97;5051756;28;20189;-70
2021/11/01 00:58:45;;;;;;;20.73;15.88;;;;;;;10.28;100.00;100589.59;5051538;28;20415;-68
2021/11/01 01:01:13;;;;;;;22.90;16.63;;;;;;;10.58;100.00;100647.53;5051449;28;20111;-69
2021/11/01 01:03:40;;;;;;;21.95;16.33;;;;;;;10.80;100.00;100678.59;5051681;28;20033;-69
2021/11/01 01:06:05;;;;;;;22.67;16.45;;;;;;;10.19;100.00;100592.69;5051588;28;20166;-68
2021/11/01 01:08:31;;;;;;;20.00;15.68;;;;;;;10.71;100.00;100661.84;5050938;28;20521;-68
2021/11/01 01:10:57;;;;;;;21.95;16.77;;;;;;;10.69;100.00;100666.91;5051432;28;20035;-69
2021/11/01 01:13:24;;;;;;;22.00;16.60;;;;;;;10.57;100.00;100643.22;5051348;28;20025;-71
2021/11/01 01:18:27;;;;;;;22.75;17.02;;;;;;;10.69;100.00;100666.91;5051354;28;20037;-69
2021/11/01 01:20:53;;;;;;;21.52;16.05;;;;;;;10.87;100.00;100676.25;5051003;28;20029;-69
2021/11/01 01:23:19;;;;;;;23.35;17.02;;;;;;;10.35;100.00;100588.13;5051128;28;20033;-70
2021/11/01 01:25:47;;;;;;;22.15;17.38;;;;;;;10.83;100.00;100672.66;5051510;28;20024;-67
2021/11/01 01:28:14;;;;;;;26.38;17.05;;;;;;;10.86;100.00;100672.75;5013062;28;20037;-68
2021/11/01 01:30:41;;;;;;;24.33;16.95;;;;;;;10.82;100.00;100663.13;5050785;28;20422;-67
2021/11/01 01:33:10;;;;;;;22.65;16.67;;;;;;;10.95;100.00;100672.22;5051119;28;20064;-69
2021/11/01 01:35:40;;;;;;;26.00;16.85;;;;;;;10.97;100.00;100674.06;5050698;28;20033;-69
2021/11/01 01:38:07;;;;;;;22.70;16.90;;;;;;;11.05;100.00;100668.31;5050968;28;20100;-67
2021/11/01 01:40:33;;;;;;;23.05;16.70;;;;;;;11.11;100.00;100671.13;5050291;28;20026;-69
2021/11/01 01:42:59;;;;;;;26.42;16.60;;;;;;;11.10;100.00;100659.03;5051245;28;20028;-68
2021/11/01 01:45:24;;;;;;;21.05;16.30;;;;;;;11.03;100.00;100665.66;5050926;28;20452;-65
2021/11/01 01:47:50;;;;;;;23.40;16.75;;;;;;;10.99;100.00;100645.69;5050703;28;20524;-69
2021/11/01 01:50:16;;;;;;;24.35;17.50;;;;;;;10.95;100.00;100661.91;5050516;28;20052;-66
2021/11/01 01:56:05;;;;;;;29.90;21.70;;;;;;;10.78;100.00;100646.63;5135976;23;20068;-67
2021/11/01 01:58:56;;;;;;;25.50;19.35;;;;;;;10.90;100.00;100653.97;5046410;28;20099;-67
2021/11/01 02:01:22;;;;;;;24.42;18.42;;;;;;;10.79;100.00;100668.16;4978920;28;20103;-68
2021/11/01 02:03:50;;;;;;;24.02;18.58;;;;;;;10.63;100.00;100649.50;5023573;28;20033;-68
2021/11/01 02:06:31;;;;;;;45.85;41.15;;;;;;;10.76;100.00;100663.75;5026466;28;20033;-67
2021/11/01 02:09:04;;;;;;;30.27;26.85;;;;;;;10.82;100.00;100664.00;5027732;28;20034;-67
2021/11/01 02:11:40;;;;;;;27.90;20.77;;;;;;;10.78;100.00;100644.06;5027352;28;20036;-70
2021/11/01 02:14:10;;;;;;;23.15;18.45;;;;;;;10.84;100.00;100652.03;5027909;28;20131;-68
2021/11/01 02:16:36;;;;;;;23.75;17.50;;;;;;;10.64;100.00;100624.56;5027895;28;20159;-70
2021/11/01 02:19:08;;;;;;;23.25;17.63;;;;;;;10.78;100.00;100649.22;5026260;28;20130;-67
2021/11/01 02:21:50;;;;;;;23.65;17.52;;;;;;;10.64;100.00;100635.78;5027643;28;20115;-67
2021/11/01 02:24:22;;;;;;;27.83;19.20;;;;;;;10.68;100.00;100653.13;5027945;28;20037;-67
2021/11/01 02:26:49;;;;;;;23.52;17.65;;;;;;;10.64;100.00;100637.47;5027972;28;20033;-67
2021/11/01 02:29:15;;;;;;;22.83;17.48;;;;;;;10.64;100.00;100634.88;5027792;28;20041;-67
2021/11/01 02:31:41;;;;;;;27.58;18.10;;;;;;;10.58;100.00;100643.28;5027858;28;20679;-66
2021/11/01 02:34:07;;;;;;;24.92;18.75;;;;;;;10.49;100.00;100636.06;5027789;28;20112;-67
2021/11/01 02:36:32;;;;;;;26.00;18.55;;;;;;;10.51;100.00;100623.19;5025757;28;20041;-70
2021/11/01 02:38:59;;;;;;;25.63;19.58;;;;;;;10.59;100.00;100634.72;5040720;28;20482;-70
2021/11/01 02:41:28;;;;;;;27.38;20.70;;;;;;;10.63;100.00;100631.44;5049426;28;20033;-67
2021/11/01 02:43:59;;;;;;;24.35;18.27;;;;;;;10.72;100.00;100637.78;5051116;28;20517;-69
2021/11/01 02:46:27;;;;;;;24.73;19.13;;;;;;;10.78;100.00;100636.31;5035329;28;20033;-68
2021/11/01 02:48:53;;;;;;;24.15;18.80;;;;;;;10.87;100.00;100642.66;4980448;28;20045;-68
2021/11/01 02:51:21;;;;;;;24.58;18.77;;;;;;;10.86;100.00;100633.16;5031871;28;20029;-67
2021/11/01 02:53:49;;;;;;;24.52;19.42;;;;;;;10.54;100.00;100569.09;5034783;28;20091;-71
2021/11/01 02:56:15;;;;;;;23.00;18.33;;;;;;;11.04;100.00;100639.03;5017469;28;20057;-67
2021/11/01 02:58:43;;;;;;;28.35;19.35;;;;;;;11.08;100.00;100635.72;5039489;28;20037;-68
2021/11/01 03:01:10;;;;;;;25.83;17.55;;;;;;;11.09;100.00;100634.00;5047226;28;20560;-69
2021/11/01 03:03:37;;;;;;;24.98;19.15;;;;;;;11.10;100.00;100631.50;5054637;28;20026;-68
2021/11/01 03:06:03;;;;;;;26.83;19.15;;;;;;;10.62;100.00;100552.22;5045111;28;20483;-67
2021/11/01 03:08:30;;;;;;;26.58;19.50;;;;;;;11.05;100.00;100635.59;5042721;28;20113;-67
2021/11/01 03:10:57;;;;;;;24.35;18.63;;;;;;;11.03;100.00;100626.00;5044717;28;20021;-69
2021/11/01 03:13:26;;;;;;;25.83;19.77;;;;;;;11.06;100.00;100627.00;5042195;28;20536;-68
2021/11/01 03:15:54;;;;;;;26.45;19.98;;;;;;;11.08;100.00;100627.06;5034547;28;20022;-66
2021/11/01 03:18:22;;;;;;;29.92;19.80;;;;;;;11.11;100.00;100628.06;5034565;28;20038;-68
2021/11/01 03:20:48;;;;;;;23.27;19.00;;;;;;;10.65;100.00;100535.94;5034541;28;20411;-69
2021/11/01 03:23:17;;;;;;;27.98;19.27;;;;;;;11.13;100.00;100616.09;5034232;28;20503;-67
2021/11/01 03:25:51;;;;;;;27.67;20.65;;;;;;;11.13;100.00;100617.81;5034308;28;20159;-70
2021/11/01 03:28:18;;;;;;;29.23;20.67;;;;;;;11.10;100.00;100602.19;5034261;28;20491;-70
2021/11/01 03:30:47;;;;;;;27.60;19.98;;;;;;;11.09;100.00;100611.66;5041237;28;20017;-67
2021/11/01 03:33:14;;;;;;;26.58;21.10;;;;;;;11.09;100.00;100601.31;5053740;28;20146;-70
2021/11/01 03:35:42;;;;;;;28.73;22.40;;;;;;;11.06;100.00;100596.00;5053520;28;20029;-70
2021/11/01 03:38:10;;;;;;;29.75;22.60;;;;;;;11.02;100.00;100598.44;5053422;28;20025;-68
2021/11/01 03:40:37;;;;;;;27.75;21.55;;;;;;;10.74;100.00;100535.41;5053613;28;20017;-68
2021/11/01 03:43:05;;;;;;;28.77;21.58;;;;;;;11.15;100.00;100598.06;5050798;28;20513;-68
2021/11/01 03:45:34;;;;;;;30.45;21.45;;;;;;;11.20;100.00;100598.22;5053936;28;20375;-67
2021/11/01 03:48:04;;;;;;;28.17;21.80;;;;;;;10.98;100.00;100595.75;5055257;28;20465;-69
2021/11/01 03:50:41;;;;;;;27.30;21.45;;;;;;;10.66;100.00;100594.53;5055910;28;20025;-68
2021/11/01 03:53:07;;;;;;;30.15;23.63;;;;;;;10.03;100.00;100498.31;5050832;28;20028;-69
2021/11/01 03:55:33;;;;;;;28.67;23.50;;;;;;;10.67;100.00;100588.53;5052777;28;20442;-69
2021/11/01 03:58:00;;;;;;;32.95;23.73;;;;;;;10.68;100.00;100582.56;5052972;28;20516;-68
2021/11/01 04:00:31;;;;;;;32.47;22.77;;;;;;;10.67;100.00;100596.28;5036811;28;20037;-68
2021/11/01 04:02:57;;;;;;;33.53;23.45;;;;;;;10.65;100.00;100583.31;5033066;28;20036;-68
2021/11/01 04:05:23;;;;;;;28.20;21.92;;;;;;;10.56;100.00;100548.53;5033216;28;20472;-68
2021/11/01 04:07:49;;;;;;;31.48;23.60;;;;;;;10.68;100.00;100547.28;5048319;28;20035;-66
2021/11/01 04:10:14;;;;;;;32.78;23.60;;;;;;;10.77;100.00;100572.56;5050781;28;20033;-66
2021/11/01 04:12:44;;;;;;;31.50;23.95;;;;;;;10.79;100.00;100560.59;5037164;28;20522;-68
2021/11/01 04:15:21;;;;;;;30.15;23.80;;;;;;;10.91;100.00;100573.06;5033314;28;20391;-67
2021/11/01 04:17:52;;;;;;;32.25;24.42;;;;;;;10.98;100.00;100572.50;5032890;28;20047;-68
2021/11/01 04:22:47;;;;;;;31.65;23.10;;;;;;;10.92;100.00;100561.06;5053179;28;20036;-67
2021/11/01 04:25:12;;;;;;;30.90;23.83;;;;;;;10.97;100.00;100572.44;5052723;28;20418;-67
2021/11/01 04:27:38;;;;;;;29.90;22.25;;;;;;;10.92;100.00;100564.50;5034951;28;20033;-68
2021/11/01 04:30:06;;;;;;;31.13;23.60;;;;;;;10.80;100.00;100567.53;5052612;28;20537;-68
2021/11/01 04:35:08;;;;;;;33.67;24.08;;;;;;;10.82;100.00;100560.69;5052708;28;20029;-68
2021/11/01 04:37:34;;;;;;;31.83;22.73;;;;;;;10.76;100.00;100552.72;5052548;28;20036;-68
2021/11/01 04:53:38;;;;;;;29.13;21.88;;;;;;;10.79;100.00;100559.69;4952552;29;20089;-68
2021/11/01 04:56:04;;;;;;;30.73;23.05;;;;;;;10.75;100.00;100563.88;4951599;29;20079;-68
2021/11/01 04:58:31;;;;;;;31.42;21.33;;;;;;;10.78;100.00;100569.16;4952061;29;20078;-68
2021/11/01 05:00:56;;;;;;;31.63;21.60;;;;;;;10.71;100.00;100546.50;4952017;29;20043;-67
2021/11/01 05:05:48;;;;;;;39.78;34.00;;;;;;;10.92;100.00;100554.19;4951739;29;20071;-66
2021/11/01 05:08:15;;;;;;;46.90;41.45;;;;;;;10.86;100.00;100540.16;4951652;29;20749;-68
2021/11/01 05:10:43;;;;;;;31.33;21.65;;;;;;;10.67;100.00;100535.19;4951803;29;20045;-68
2021/11/01 05:13:17;;;;;;;32.55;22.30;;;;;;;10.29;100.00;100466.59;4951608;29;20051;-68
2021/11/01 05:15:49;;;;;;;31.15;22.52;;;;;;;10.75;100.00;100537.19;4950907;28;20538;-68
2021/11/01 05:20:55;;;;;;;33.05;21.52;;;;;;;10.32;100.00;100456.41;4968863;28;20070;-68
2021/11/01 05:25:51;;;;;;;29.10;22.63;;;;;;;10.79;100.00;100536.47;5042698;28;20063;-68
2021/11/01 05:30:58;;;;;;;30.90;22.50;;;;;;;11.09;100.00;100570.31;5048168;28;20026;-68
2021/11/01 05:35:50;;;;;;;32.58;23.90;;;;;;;11.13;100.00;100576.47;5031960;28;20026;-67
2021/11/01 05:38:15;;;;;;;30.00;23.23;;;;;;;11.14;100.00;100575.63;5031582;28;20030;-68
2021/11/01 05:41:02;;;;;;;28.88;20.95;;;;;;;10.49;100.00;100482.84;4970734;28;20436;-67
2021/11/01 05:43:27;;;;;;;32.53;23.35;;;;;;;10.84;100.00;100556.47;4970657;28;20038;-68
2021/11/01 05:45:53;;;;;;;29.23;22.65;;;;;;;10.91;100.00;100554.13;4970565;28;20042;-68
2021/11/01 05:48:18;;;;;;;30.67;22.13;;;;;;;10.99;100.00;100586.25;4970487;28;20042;-67
2021/11/01 05:51:06;;;;;;;33.30;22.60;;;;;;;11.07;100.00;100579.69;4950951;29;20110;-65
2021/11/01 05:53:36;;;;;;;31.02;23.92;;;;;;;11.08;100.00;100572.81;4951179;29;20044;-67
2021/11/01 05:59:10;;;;;;;32.13;23.30;;;;;;;11.16;100.00;100571.41;4951201;29;20047;-67
2021/11/01 06:04:08;;;;;;;32.47;23.95;;;;;;;10.76;100.00;100498.50;4894338;29;20044;-67
2021/11/01 06:06:59;;;;;;;35.00;23.10;;;;;;;11.29;100.00;100588.22;4880547;29;20091;-68
2021/11/01 06:09:50;;;;;;;28.42;21.75;;;;;;;11.31;100.00;100584.00;4913179;29;20052;-68
2021/11/01 06:14:59;;;;;;;47.53;29.52;;;;;;;11.40;100.00;100596.34;4913127;29;20051;-67
2021/11/01 06:17:24;;;;;;;45.20;29.08;;;;;;;11.43;100.00;100587.00;4912850;29;20066;-68
2021/11/01 06:19:50;;;;;;;33.67;24.10;;;;;;;11.51;100.00;100589.00;4912814;29;20048;-68
2021/11/01 06:22:16;;;;;;;36.08;24.30;;;;;;;11.46;100.00;100573.31;4912761;29;20048;-66
2021/11/01 06:24:52;;;;;;;31.52;23.30;;;;;;;11.57;100.00;100584.91;4897048;29;20044;-67
2021/11/01 06:27:19;;;;;;;31.38;22.52;;;;;;;11.63;100.00;100585.13;4914584;29;20057;-67
2021/11/01 06:32:26;;;;;;;30.50;21.80;;;;;;;11.68;100.00;100587.00;4974167;28;20035;-67
2021/11/01 06:40:48;;;;;;;24.75;20.98;;;;;;;11.53;100.00;100552.03;5054976;28;20064;-67
2021/11/01 07:15:02;;;;;;;41.92;28.33;;;;;;;11.11;100.00;100557.44;5054042;28;20032;-68
2021/11/01 07:20:14;;;;;;;78.00;56.88;;;;;;;10.71;100.00;100481.09;5054072;28;20556;-68
2021/11/01 07:23:16;;;;;;;61.65;41.90;;;;;;;11.28;100.00;100563.22;5053621;28;20036;-68
2021/11/01 08:17:44;;;;;;;67.95;41.33;;;;;;;11.32;100.00;100537.50;5053270;28;20060;-68
2021/11/01 08:26:19;;;;;;;55.30;34.72;;;;;;;11.49;100.00;100545.84;4971950;28;20509;-67
2021/11/01 08:29:12;;;;;;;48.70;32.75;;;;;;;11.47;100.00;100529.41;4971538;28;20094;-68
2021/11/01 08:39:34;;;;;;;47.13;30.20;;;;;;;11.47;100.00;100521.66;4971549;28;20039;-68
2021/11/01 09:06:16;;;;;;;41.40;26.83;;;;;;;11.85;100.00;100512.53;4951515;28;20432;-67
2021/11/01 09:27:08;;;;;;;42.33;24.92;;;;;;;11.73;100.00;100487.16;5018092;28;20111;-67
2021/11/01 09:42:53;;;;;;;46.58;26.10;;;;;;;11.98;100.00;100473.34;5031371;28;20024;-67
2021/11/01 09:45:24;;;;;;;44.58;27.45;;;;;;;12.03;100.00;100474.34;5031484;28;20033;-67
2021/11/01 09:47:51;;;;;;;41.17;26.75;;;;;;;12.01;100.00;100477.72;4997008;28;20091;-67
2021/11/01 09:50:20;;;;;;;42.28;24.95;;;;;;;12.02;100.00;100471.72;5031523;28;20112;-68
2021/11/01 09:53:15;;;;;;;43.03;24.42;;;;;;;12.00;100.00;100463.03;5031436;28;20065;-67
2021/11/01 09:55:47;;;;;;;36.58;24.08;;;;;;;12.07;100.00;100455.50;4989014;28;20043;-68
2021/11/01 10:00:59;;;;;;;38.72;23.27;;;;;;;12.27;100.00;100461.28;5009301;28;20108;-67
2021/11/01 10:03:36;;;;;;;35.70;23.42;;;;;;;12.27;100.00;100442.28;5009560;28;20439;-67
2021/11/01 10:06:02;;;;;;;33.05;20.83;;;;;;;12.28;100.00;100431.97;4976375;28;20034;-67
2021/11/01 10:08:30;;;;;;;33.55;20.70;;;;;;;12.44;100.00;100441.06;5009431;28;20125;-68
2021/11/01 10:11:00;;;;;;;30.95;21.30;;;;;;;12.54;100.00;100438.75;5009706;28;20511;-68
2021/11/01 10:13:29;;;;;;;33.70;23.20;;;;;;;12.38;100.00;100415.00;5009301;28;20104;-67
2021/11/01 10:18:47;;;;;;;29.05;20.73;;;;;;;11.92;100.00;100308.41;5016743;28;20041;-67
2021/11/01 10:21:16;;;;;;;32.10;21.08;;;;;;;12.61;100.00;100431.19;5019052;28;20037;-66
2021/11/01 10:23:55;;;;;;;32.93;22.33;;;;;;;12.69;100.00;100427.94;5018283;28;20032;-67
2021/11/01 10:26:28;;;;;;;31.15;21.98;;;;;;;12.77;100.00;100422.13;5027006;28;20073;-66
2021/11/01 10:28:55;;;;;;;35.08;22.08;;;;;;;12.79;100.00;100417.84;5039436;28;20167;-68
2021/11/01 10:31:22;;;;;;;28.38;19.27;;;;;;;12.82;100.00;100419.63;5041497;28;20028;-68
2021/11/01 10:34:14;;;;;;;32.67;24.38;;;;;;;12.84;100.00;100411.94;5039701;28;20020;-69
2021/11/01 10:36:42;;;;;;;31.00;22.13;;;;;;;12.86;100.00;100416.31;4979320;28;20436;-72
2021/11/01 10:39:20;;;;;;;28.83;19.83;;;;;;;12.89;100.00;100413.78;4991868;28;20035;-68
2021/11/01 10:48:01;;;;;;;28.85;21.13;;;;;;;12.93;100.00;100391.44;5004784;28;20026;-68
2021/11/01 11:12:29;;;;;;;31.40;23.70;;;;;;;13.17;100.00;100387.72;4885028;29;20059;-69
2021/11/01 11:14:59;;;;;;;31.67;23.35;;;;;;;13.16;100.00;100373.00;4913304;29;20032;-68
2021/11/01 11:29:10;;;;;;;25.77;20.00;;;;;;;13.31;100.00;100370.78;4914219;29;20517;-67
2021/11/01 11:39:49;;;;;;;32.28;23.80;;;;;;;13.24;100.00;100353.34;4959903;28;20178;-67
2021/11/01 11:50:29;;;;;;;37.90;29.23;;;;;;;13.28;100.00;100349.97;4939966;28;20043;-68
2021/11/01 11:52:54;;;;;;;35.25;28.40;;;;;;;13.17;100.00;100341.94;4970655;28;20085;-72
2021/11/01 11:55:25;;;;;;;30.00;23.17;;;;;;;13.11;100.00;100350.44;4964023;28;20505;-65
2021/11/01 11:58:03;;;;;;;28.33;22.92;;;;;;;13.03;100.00;100353.69;4965098;28;20069;-68
2021/11/01 12:00:35;;;;;;;33.90;26.90;;;;;;;13.13;100.00;100345.28;4968215;28;20131;-70
2021/11/01 12:03:14;;;;;;;36.70;28.52;;;;;;;12.73;100.00;100280.38;4966405;28;20086;-68
2021/11/01 12:05:51;;;;;;;31.13;25.20;;;;;;;12.89;100.00;100341.25;4959165;28;20125;-69
2021/11/01 12:08:27;;;;;;;36.25;26.70;;;;;;;12.96;100.00;100347.47;4943515;28;20371;-68
2021/11/01 12:18:58;;;;;;;36.22;27.08;;;;;;;13.36;100.00;100332.88;5051951;28;20086;-69
2021/11/01 12:21:25;;;;;;;31.13;26.42;;;;;;;13.25;100.00;100321.38;5052816;28;20442;-69
2021/11/01 12:23:51;;;;;;;40.72;26.38;;;;;;;13.30;100.00;100335.34;5052911;28;20048;-66
2021/11/01 12:26:20;;;;;;;29.10;21.67;;;;;;;12.66;100.00;100252.59;5052588;28;20032;-70
2021/11/01 12:28:54;;;;;;;30.98;23.92;;;;;;;12.98;100.00;100327.63;5053047;28;20036;-66
2021/11/01 12:31:21;;;;;;;34.28;25.95;;;;;;;12.97;100.00;100325.88;5052844;28;20108;-72
2021/11/01 12:39:18;;;;;;;31.55;25.80;;;;;;;13.29;100.00;100325.78;4991405;28;20034;-69
2021/11/01 12:42:10;;;;;;;30.58;23.95;;;;;;;13.32;100.00;100318.09;4991324;28;20074;-69
2021/11/01 12:56:58;;;;;;;27.98;20.45;;;;;;;13.74;100.00;100325.13;4991185;28;20038;-69
2021/11/01 12:58:27;;;;;;;32.08;28.15;;;;;;;14.06;100.00;100311.94;4990835;28;20093;-67
2021/11/01 13:00:53;;;;;;;32.83;24.35;;;;;;;14.05;100.00;100298.94;4990614;28;20042;-67
2021/11/01 13:03:21;;;;;;;28.10;22.67;;;;;;;14.06;100.00;100306.75;4990627;28;20034;-68
2021/11/01 13:05:54;;;;;;;25.27;22.55;;;;;;;14.01;100.00;100289.34;4990867;28;20041;-67
2021/11/01 13:08:27;;;;;;;25.13;20.45;;;;;;;14.12;98.22;100311.19;4990659;28;20115;-69
2021/11/01 13:25:04;;;;;;;26.60;20.92;;;;;;;13.62;100.00;100311.00;5052021;28;20063;-70
2021/11/01 13:38:50;;;;;;;36.13;26.25;;;;;;;13.61;100.00;100304.06;4992793;28;20040;-69
2021/11/01 13:41:53;;;;;;;33.72;23.70;;;;;;;13.64;100.00;100309.31;4943950;28;20417;-68
2021/11/01 13:44:21;;;;;;;29.67;22.83;;;;;;;13.62;100.00;100309.28;4907659;29;20040;-69
2021/11/01 13:47:04;;;;;;;34.08;22.88;;;;;;;13.59;100.00;100311.81;4908190;29;20142;-68
2021/11/01 13:50:08;;;;;;;27.65;23.55;;;;;;;13.61;100.00;100304.06;4896448;29;20063;-69
2021/11/01 13:52:45;;;;;;;32.22;24.25;;;;;;;13.65;99.69;100305.91;4875213;29;20492;-69
2021/11/01 13:55:23;;;;;;;30.52;25.63;;;;;;;13.73;99.38;100289.66;4875260;29;20610;-69
2021/11/01 13:58:12;;;;;;;32.85;22.85;;;;;;;13.85;99.45;100301.97;4878179;29;20088;-69
2021/11/01 14:03:46;;;;;;;33.47;25.23;;;;;;;13.39;99.74;100231.84;4876199;29;20048;-72
2021/11/01 14:12:36;;;;;;;37.05;24.27;;;;;;;13.54;100.00;100292.69;4853642;29;20061;-70
2021/11/01 14:15:21;;;;;;;36.17;27.58;;;;;;;13.56;100.00;100284.09;4864544;29;20043;-70
2021/11/01 14:29:25;;;;;;;38.85;26.25;;;;;;;13.71;100.00;100290.47;4856109;29;20040;-69
2021/11/01 15:00:19;;;;;;;93.22;62.03;;;;;;;13.81;100.00;100270.78;4859125;29;20064;-67
2021/11/01 15:15:55;;;;;;;37.20;27.77;;;;;;;13.82;98.06;100273.41;4932825;29;20044;-67
2021/11/01 15:21:16;;;;;;;36.08;26.98;;;;;;;13.82;98.53;100263.00;4991776;28;20054;-68
2021/11/01 16:20:09;;;;;;;52.08;41.85;;;;;;;13.20;99.09;100274.59;4910497;29;20043;-71
2021/11/01 16:22:36;;;;;;;42.28;33.75;;;;;;;13.27;99.52;100293.75;4898843;29;20032;-70
2021/11/01 16:25:03;;;;;;;42.60;35.75;;;;;;;13.26;98.91;100297.22;4913929;29;20040;-66
2021/11/01 16:27:29;;;;;;;69.15;28.27;;;;;;;13.24;99.46;100294.56;4914442;29;20522;-67
2021/11/01 16:32:25;;;;;;;26.00;22.20;;;;;;;13.21;99.92;100299.69;4909153;29;20538;-69
2021/11/01 16:34:58;;;;;;;30.13;21.40;;;;;;;13.16;100.00;100297.81;4907905;29;20024;-68
2021/11/01 16:40:12;;;;;;;28.80;21.77;;;;;;;12.88;100.00;100266.94;4971782;28;20061;-69
2021/11/01 16:42:40;;;;;;;30.05;20.88;;;;;;;13.01;100.00;100294.03;4977008;28;20439;-70
2021/11/01 16:45:13;;;;;;;49.28;22.75;;;;;;;12.94;100.00;100284.38;4990122;28;20041;-67
2021/11/01 16:47:41;;;;;;;32.80;23.08;;;;;;;13.00;100.00;100300.06;4990591;28;20574;-70
2021/11/01 16:50:10;;;;;;;32.33;23.83;;;;;;;12.56;100.00;100232.47;4987494;28;20065;-68
2021/11/01 16:52:35;;;;;;;31.50;22.42;;;;;;;12.94;100.00;100300.78;4990529;28;20510;-72
2021/11/01 16:55:04;;;;;;;28.38;18.70;;;;;;;12.87;100.00;100305.78;4976013;28;20034;-68
2021/11/01 16:57:55;;;;;;;26.00;19.27;;;;;;;12.86;100.00;100311.78;4979798;28;20057;-70
2021/11/01 17:05:56;;;;;;;23.88;18.50;;;;;;;12.78;100.00;100327.16;5009898;28;20033;-66
2021/11/01 17:24:51;;;;;;;21.27;15.57;;;;;;;12.26;100.00;100324.94;5051458;28;20025;-68
2021/11/01 18:44:36;;;;;;;25.42;16.75;;;;;;;11.94;100.00;100329.16;4964763;28;20038;-67
2021/11/01 18:52:38;;;;;;;47.55;17.38;;;;;;;11.58;100.00;100280.69;4962589;28;20161;-68
2021/11/01 18:55:08;;;;;;;46.77;17.80;;;;;;;11.77;100.00;100326.94;4964634;28;20043;-68
2021/11/01 18:57:34;;;;;;;45.13;18.88;;;;;;;11.75;100.00;100320.88;4964121;28;20090;-70
2021/11/01 19:00:05;;;;;;;56.45;20.90;;;;;;;11.72;100.00;100327.66;4952261;28;20494;-70
2021/11/01 19:02:49;;;;;;;199.07;122.63;;;;;;;11.52;100.00;100317.56;4952358;28;20521;-67
2021/11/01 19:07:48;;;;;;;42.78;25.98;;;;;;;11.48;100.00;100326.94;4943526;28;20042;-68
2021/11/01 20:05:16;;;;;;;41.17;14.77;;;;;;;11.63;100.00;100307.56;4924661;29;20028;-68
2021/11/01 20:13:21;;;;;;;34.05;12.85;;;;;;;11.64;100.00;100328.28;5001359;28;20045;-69
2021/11/01 21:26:17;;;;;;;33.67;14.82;;;;;;;11.84;100.00;100303.84;5029330;28;20040;-69
2021/11/01 21:28:43;;;;;;;23.40;12.55;;;;;;;11.81;100.00;100310.69;5028745;28;20091;-70
2021/11/01 21:31:09;;;;;;;33.85;12.63;;;;;;;11.79;100.00;100299.41;5028995;28;20025;-70
2021/11/01 21:33:36;;;;;;;41.20;12.15;;;;;;;11.76;100.00;100293.28;5028609;28;20060;-70
2021/11/01 21:36:06;;;;;;;29.25;13.30;;;;;;;11.73;100.00;100295.78;5071386;28;20052;-66
2021/11/01 21:38:31;;;;;;;29.52;10.93;;;;;;;11.71;100.00;100294.84;5070986;28;20454;-71
2021/11/01 21:40:57;;;;;;;21.83;11.10;;;;;;;11.50;100.00;100288.19;5071032;28;20100;-70
2021/11/01 21:43:23;;;;;;;33.15;11.75;;;;;;;11.17;100.00;100286.34;5064949;28;20029;-67
2021/11/01 21:45:49;;;;;;;21.90;10.05;;;;;;;10.94;100.00;100286.50;5070583;28;20024;-67
2021/11/01 21:48:15;;;;;;;13.85;9.20;;;;;;;10.55;100.00;100265.38;5062527;28;20032;-69
2021/11/01 21:50:47;;;;;;;36.38;11.63;;;;;;;10.62;100.00;100278.56;5060848;28;20025;-67
2021/11/01 21:53:14;;;;;;;37.10;10.55;;;;;;;10.44;100.00;100286.56;5059236;28;20054;-70
2021/11/01 21:55:41;;;;;;;58.60;12.00;;;;;;;10.51;100.00;100282.47;5066410;28;20090;-70
2021/11/01 21:58:21;;;;;;;34.10;11.27;;;;;;;10.58;100.00;100278.38;5066571;28;20057;-68
2021/11/01 22:17:29;;;;;;;49.15;15.80;;;;;;;10.13;100.00;100276.81;5069523;28;20039;-69
2021/11/01 22:56:24;;;;;;;18.63;9.82;;;;;;;8.55;100.00;100268.22;4985059;28;20073;-68
2021/11/01 22:58:50;;;;;;;35.10;9.90;;;;;;;8.48;100.00;100271.34;4956238;28;20056;-69
2021/11/01 23:01:20;;;;;;;20.40;10.35;;;;;;;8.37;100.00;100263.13;4987500;28;20555;-71
2021/11/01 23:33:49;;;;;;;110.85;11.77;;;;;;;8.11;100.00;100124.03;4982960;28;20050;-71
2021/11/01 23:36:14;;;;;;;25.80;7.80;;;;;;;8.70;100.00;100214.78;4990866;28;20039;-73
2021/11/01 23:38:40;;;;;;;59.85;8.18;;;;;;;8.46;100.00;100199.25;4990734;28;20026;-71
2021/11/01 23:41:06;;;;;;;129.05;10.25;;;;;;;8.51;100.00;100215.75;4991075;28;20026;-71
2021/11/01 23:43:32;;;;;;;146.75;9.10;;;;;;;8.57;100.00;100207.38;5031374;28;20044;-70
2021/11/01 23:45:58;;;;;;;138.18;9.93;;;;;;;8.68;100.00;100211.25;5069996;28;20013;-69
2021/11/01 23:48:24;;;;;;;113.75;9.48;;;;;;;8.73;100.00;100203.72;5072312;28;20371;-71
2021/11/01 23:50:49;;;;;;;93.78;8.95;;;;;;;8.74;100.00;100208.94;5070976;28;20394;-71
2021/11/01 23:53:22;;;;;;;104.03;8.85;;;;;;;8.74;100.00;100210.63;5070734;28;20043;-71
2021/11/01 23:55:48;;;;;;;64.97;7.65;;;;;;;8.80;100.00;100205.75;5070371;28;20064;-71
2021/11/01 23:58:14;;;;;;;75.28;8.45;;;;;;;8.42;100.00;100125.28;5072355;28;20422;-68
